sensor_id;sensor_type;location;lat;lon;timestamp;P1;P2;P0
55754;PMS5003;41674;52.290;-1.474;2024-01-16T00:00:36;27;26;
55754;PMS5003;41674;52.290;-1.474;2024-01-16T00:03:06;25;23;
55754;PMS5003;41674;52.290;-1.474;2024-01-16T00:05:36;30;27;
55754;PMS5003;41674;52.290;-1.474;2024-01-16T00:08:05;31;27;
55754;PMS5003;41674;52.290;-1.474;2024-01-16T00:10:34;29;24;
55754;PMS5003;41674;52.290;-1.474;2024-01-16T00:13:04;28;23;
55754;PMS5003;41674;52.290;-1.474;2024-01-16T00:15:34;27;27;
55754;PMS5003;41674;52.290;-1.474;2024-01-16T00:18:04;27;26;
55754;PMS5003;41674;52.290;-1.474;2024-01-16T00:20:35;26;23;
55754;PMS5003;41674;52.290;-1.474;2024-01-16T00:23:03;31;27;
55754;PMS5003;41674;52.290;-1.474;2024-01-16T00:25:35;29;26;
55754;PMS5003;41674;52.290;-1.474;2024-01-16T00:28:02;30;26;
55754;PMS5003;41674;52.290;-1.474;2024-01-16T00:30:33;27;26;
55754;PMS5003;41674;52.290;-1.474;2024-01-16T00:33:03;28;27;
55754;PMS5003;41674;52.290;-1.474;2024-01-16T00:35:31;25;22;
55754;PMS5003;41674;52.290;-1.474;2024-01-16T00:38:00;27;27;
55754;PMS5003;41674;52.290;-1.474;2024-01-16T00:40:30;27;21;
55754;PMS5003;41674;52.290;-1.474;2024-01-16T00:43:00;28;26;
55754;PMS5003;41674;52.290;-1.474;2024-01-16T00:45:30;25;24;
55754;PMS5003;41674;52.290;-1.474;2024-01-16T00:47:59;25;22;
55754;PMS5003;41674;52.290;-1.474;2024-01-16T00:50:29;25;24;
55754;PMS5003;41674;52.290;-1.474;2024-01-16T00:52:58;27;24;
55754;PMS5003;41674;52.290;-1.474;2024-01-16T00:55:28;28;26;
55754;PMS5003;41674;52.290;-1.474;2024-01-16T00:57:58;28;25;
55754;PMS5003;41674;52.290;-1.474;2024-01-16T01:00:27;29;26;
55754;PMS5003;41674;52.290;-1.474;2024-01-16T01:02:57;26;23;
55754;PMS5003;41674;52.290;-1.474;2024-01-16T01:05:26;28;23;
55754;PMS5003;41674;52.290;-1.474;2024-01-16T01:07:55;29;27;
55754;PMS5003;41674;52.290;-1.474;2024-01-16T01:10:25;31;27;
55754;PMS5003;41674;52.290;-1.474;2024-01-16T01:12:54;32;29;
55754;PMS5003;41674;52.290;-1.474;2024-01-16T01:15:24;25;25;
55754;PMS5003;41674;52.290;-1.474;2024-01-16T01:17:53;27;25;
55754;PMS5003;41674;52.290;-1.474;2024-01-16T01:20:22;33;27;
55754;PMS5003;41674;52.290;-1.474;2024-01-16T01:22:52;26;26;
55754;PMS5003;41674;52.290;-1.474;2024-01-16T01:25:22;33;29;
55754;PMS5003;41674;52.290;-1.474;2024-01-16T01:27:53;32;27;
55754;PMS5003;41674;52.290;-1.474;2024-01-16T01:30:20;35;30;
55754;PMS5003;41674;52.290;-1.474;2024-01-16T01:32:52;32;30;
55754;PMS5003;41674;52.290;-1.474;2024-01-16T01:35:21;30;27;
55754;PMS5003;41674;52.290;-1.474;2024-01-16T01:37:49;29;29;
55754;PMS5003;41674;52.290;-1.474;2024-01-16T01:40:18;29;24;
55754;PMS5003;41674;52.290;-1.474;2024-01-16T01:42:48;26;25;
55754;PMS5003;41674;52.290;-1.474;2024-01-16T01:45:17;34;31;
55754;PMS5003;41674;52.290;-1.474;2024-01-16T01:47:49;39;30;
55754;PMS5003;41674;52.290;-1.474;2024-01-16T01:50:16;30;26;
55754;PMS5003;41674;52.290;-1.474;2024-01-16T01:52:46;30;25;
55754;PMS5003;41674;52.290;-1.474;2024-01-16T01:55:17;30;29;
55754;PMS5003;41674;52.290;-1.474;2024-01-16T01:57:45;35;27;
55754;PMS5003;41674;52.290;-1.474;2024-01-16T02:00:15;34;28;
55754;PMS5003;41674;52.290;-1.474;2024-01-16T02:02:44;29;27;
55754;PMS5003;41674;52.290;-1.474;2024-01-16T02:05:13;30;28;
55754;PMS5003;41674;52.290;-1.474;2024-01-16T02:07:43;31;28;
55754;PMS5003;41674;52.290;-1.474;2024-01-16T02:10:13;31;29;
55754;PMS5003;41674;52.290;-1.474;2024-01-16T02:12:42;31;28;
55754;PMS5003;41674;52.290;-1.474;2024-01-16T02:15:12;31;28;
55754;PMS5003;41674;52.290;-1.474;2024-01-16T02:17:41;31;28;
55754;PMS5003;41674;52.290;-1.474;2024-01-16T02:20:11;27;26;
55754;PMS5003;41674;52.290;-1.474;2024-01-16T02:22:40;29;26;
55754;PMS5003;41674;52.290;-1.474;2024-01-16T02:25:10;25;25;
55754;PMS5003;41674;52.290;-1.474;2024-01-16T02:27:39;27;25;
55754;PMS5003;41674;52.290;-1.474;2024-01-16T02:30:09;30;29;
55754;PMS5003;41674;52.290;-1.474;2024-01-16T02:32:38;31;26;
55754;PMS5003;41674;52.290;-1.474;2024-01-16T02:35:08;22;21;
55754;PMS5003;41674;52.290;-1.474;2024-01-16T02:37:38;31;25;
55754;PMS5003;41674;52.290;-1.474;2024-01-16T02:40:08;25;25;
55754;PMS5003;41674;52.290;-1.474;2024-01-16T02:42:37;24;24;
55754;PMS5003;41674;52.290;-1.474;2024-01-16T02:45:07;24;20;
55754;PMS5003;41674;52.290;-1.474;2024-01-16T02:47:35;27;26;
55754;PMS5003;41674;52.290;-1.474;2024-01-16T02:50:05;27;24;
55754;PMS5003;41674;52.290;-1.474;2024-01-16T02:52:34;23;21;
55754;PMS5003;41674;52.290;-1.474;2024-01-16T02:55:05;21;21;
55754;PMS5003;41674;52.290;-1.474;2024-01-16T02:57:33;22;20;
55754;PMS5003;41674;52.290;-1.474;2024-01-16T03:00:03;22;22;
55754;PMS5003;41674;52.290;-1.474;2024-01-16T03:02:33;25;21;
55754;PMS5003;41674;52.290;-1.474;2024-01-16T03:05:02;21;20;
55754;PMS5003;41674;52.290;-1.474;2024-01-16T03:07:31;24;23;
55754;PMS5003;41674;52.290;-1.474;2024-01-16T03:10:00;22;22;
55754;PMS5003;41674;52.290;-1.474;2024-01-16T03:12:31;24;23;
55754;PMS5003;41674;52.290;-1.474;2024-01-16T03:14:59;22;22;
55754;PMS5003;41674;52.290;-1.474;2024-01-16T03:17:28;21;21;
55754;PMS5003;41674;52.290;-1.474;2024-01-16T03:19:57;21;18;
55754;PMS5003;41674;52.290;-1.474;2024-01-16T03:22:27;20;19;
55754;PMS5003;41674;52.290;-1.474;2024-01-16T03:24:56;20;19;
55754;PMS5003;41674;52.290;-1.474;2024-01-16T03:27:26;20;17;
55754;PMS5003;41674;52.290;-1.474;2024-01-16T03:29:55;23;16;
55754;PMS5003;41674;52.290;-1.474;2024-01-16T03:32:25;23;21;
55754;PMS5003;41674;52.290;-1.474;2024-01-16T03:34:54;23;22;
55754;PMS5003;41674;52.290;-1.474;2024-01-16T03:37:24;20;18;
55754;PMS5003;41674;52.290;-1.474;2024-01-16T03:39:53;22;19;
55754;PMS5003;41674;52.290;-1.474;2024-01-16T03:42:23;19;17;
55754;PMS5003;41674;52.290;-1.474;2024-01-16T03:44:52;24;21;
55754;PMS5003;41674;52.290;-1.474;2024-01-16T03:47:22;20;19;
55754;PMS5003;41674;52.290;-1.474;2024-01-16T03:49:51;15;15;
55754;PMS5003;41674;52.290;-1.474;2024-01-16T03:52:20;18;18;
55754;PMS5003;41674;52.290;-1.474;2024-01-16T03:54:50;19;16;
55754;PMS5003;41674;52.290;-1.474;2024-01-16T03:57:20;21;19;
55754;PMS5003;41674;52.290;-1.474;2024-01-16T03:59:48;20;15;
55754;PMS5003;41674;52.290;-1.474;2024-01-16T04:02:17;18;18;
55754;PMS5003;41674;52.290;-1.474;2024-01-16T04:04:47;17;15;
55754;PMS5003;41674;52.290;-1.474;2024-01-16T04:07:16;18;18;
55754;PMS5003;41674;52.290;-1.474;2024-01-16T04:09:48;18;14;
55754;PMS5003;41674;52.290;-1.474;2024-01-16T04:12:16;17;16;
55754;PMS5003;41674;52.290;-1.474;2024-01-16T04:14:45;17;17;
55754;PMS5003;41674;52.290;-1.474;2024-01-16T04:17:15;17;15;
55754;PMS5003;41674;52.290;-1.474;2024-01-16T04:19:44;15;13;
55754;PMS5003;41674;52.290;-1.474;2024-01-16T04:22:14;16;14;
55754;PMS5003;41674;52.290;-1.474;2024-01-16T04:24:44;13;13;
55754;PMS5003;41674;52.290;-1.474;2024-01-16T04:27:14;15;13;
55754;PMS5003;41674;52.290;-1.474;2024-01-16T04:29:43;18;17;
55754;PMS5003;41674;52.290;-1.474;2024-01-16T04:32:13;11;11;
55754;PMS5003;41674;52.290;-1.474;2024-01-16T04:34:42;18;15;
55754;PMS5003;41674;52.290;-1.474;2024-01-16T04:37:12;13;13;
55754;PMS5003;41674;52.290;-1.474;2024-01-16T04:39:42;15;13;
55754;PMS5003;41674;52.290;-1.474;2024-01-16T04:42:12;18;13;
55754;PMS5003;41674;52.290;-1.474;2024-01-16T04:44:41;18;15;
55754;PMS5003;41674;52.290;-1.474;2024-01-16T04:47:10;17;14;
55754;PMS5003;41674;52.290;-1.474;2024-01-16T04:49:41;16;14;
55754;PMS5003;41674;52.290;-1.474;2024-01-16T04:52:09;18;13;
55754;PMS5003;41674;52.290;-1.474;2024-01-16T04:54:39;16;13;
55754;PMS5003;41674;52.290;-1.474;2024-01-16T04:57:08;20;12;
55754;PMS5003;41674;52.290;-1.474;2024-01-16T04:59:38;14;13;
55754;PMS5003;41674;52.290;-1.474;2024-01-16T05:02:09;14;12;
55754;PMS5003;41674;52.290;-1.474;2024-01-16T05:04:37;15;12;
55754;PMS5003;41674;52.290;-1.474;2024-01-16T05:07:06;15;12;
55754;PMS5003;41674;52.290;-1.474;2024-01-16T05:09:36;12;11;
55754;PMS5003;41674;52.290;-1.474;2024-01-16T05:12:05;12;12;
55754;PMS5003;41674;52.290;-1.474;2024-01-16T05:14:37;13;11;
55754;PMS5003;41674;52.290;-1.474;2024-01-16T05:17:07;14;11;
55754;PMS5003;41674;52.290;-1.474;2024-01-16T05:19:35;10;10;
55754;PMS5003;41674;52.290;-1.474;2024-01-16T05:22:05;11;10;
55754;PMS5003;41674;52.290;-1.474;2024-01-16T05:24:34;12;8;
55754;PMS5003;41674;52.290;-1.474;2024-01-16T05:27:04;10;9;
55754;PMS5003;41674;52.290;-1.474;2024-01-16T05:29:34;9;9;
55754;PMS5003;41674;52.290;-1.474;2024-01-16T05:32:04;8;8;
55754;PMS5003;41674;52.290;-1.474;2024-01-16T05:34:33;11;9;
55754;PMS5003;41674;52.290;-1.474;2024-01-16T05:37:03;11;10;
55754;PMS5003;41674;52.290;-1.474;2024-01-16T05:39:32;13;11;
55754;PMS5003;41674;52.290;-1.474;2024-01-16T05:42:04;10;10;
55754;PMS5003;41674;52.290;-1.474;2024-01-16T05:44:32;11;10;
55754;PMS5003;41674;52.290;-1.474;2024-01-16T05:47:02;10;9;
55754;PMS5003;41674;52.290;-1.474;2024-01-16T05:49:33;9;9;
55754;PMS5003;41674;52.290;-1.474;2024-01-16T05:52:02;10;9;
55754;PMS5003;41674;52.290;-1.474;2024-01-16T05:54:31;8;7;
55754;PMS5003;41674;52.290;-1.474;2024-01-16T05:57:01;11;9;
55754;PMS5003;41674;52.290;-1.474;2024-01-16T05:59:31;8;8;
55754;PMS5003;41674;52.290;-1.474;2024-01-16T06:02:00;12;9;
55754;PMS5003;41674;52.290;-1.474;2024-01-16T06:04:30;7;7;
55754;PMS5003;41674;52.290;-1.474;2024-01-16T06:07:00;9;7;
55754;PMS5003;41674;52.290;-1.474;2024-01-16T06:09:30;7;7;
55754;PMS5003;41674;52.290;-1.474;2024-01-16T06:11:59;10;10;
55754;PMS5003;41674;52.290;-1.474;2024-01-16T06:14:29;12;8;
55754;PMS5003;41674;52.290;-1.474;2024-01-16T06:16:59;7;7;
55754;PMS5003;41674;52.290;-1.474;2024-01-16T06:19:29;11;9;
55754;PMS5003;41674;52.290;-1.474;2024-01-16T06:22:00;11;9;
55754;PMS5003;41674;52.290;-1.474;2024-01-16T06:24:28;10;10;
55754;PMS5003;41674;52.290;-1.474;2024-01-16T06:26:58;10;7;
55754;PMS5003;41674;52.290;-1.474;2024-01-16T06:29:27;12;11;
55754;PMS5003;41674;52.290;-1.474;2024-01-16T06:31:57;9;8;
55754;PMS5003;41674;52.290;-1.474;2024-01-16T06:34:27;8;8;
55754;PMS5003;41674;52.290;-1.474;2024-01-16T06:36:57;12;9;
55754;PMS5003;41674;52.290;-1.474;2024-01-16T06:39:27;11;11;
55754;PMS5003;41674;52.290;-1.474;2024-01-16T06:41:56;8;8;
55754;PMS5003;41674;52.290;-1.474;2024-01-16T06:44:26;7;7;
55754;PMS5003;41674;52.290;-1.474;2024-01-16T06:46:56;12;9;
55754;PMS5003;41674;52.290;-1.474;2024-01-16T06:49:26;12;9;
55754;PMS5003;41674;52.290;-1.474;2024-01-16T06:51:55;10;9;
55754;PMS5003;41674;52.290;-1.474;2024-01-16T06:54:24;12;11;
55754;PMS5003;41674;52.290;-1.474;2024-01-16T06:56:53;13;10;
55754;PMS5003;41674;52.290;-1.474;2024-01-16T06:59:23;12;10;
55754;PMS5003;41674;52.290;-1.474;2024-01-16T07:01:53;12;12;
55754;PMS5003;41674;52.290;-1.474;2024-01-16T07:04:22;11;10;
55754;PMS5003;41674;52.290;-1.474;2024-01-16T07:06:51;10;9;
55754;PMS5003;41674;52.290;-1.474;2024-01-16T07:09:21;9;8;
55754;PMS5003;41674;52.290;-1.474;2024-01-16T07:11:50;9;8;
55754;PMS5003;41674;52.290;-1.474;2024-01-16T07:14:21;9;8;
55754;PMS5003;41674;52.290;-1.474;2024-01-16T07:16:50;8;8;
55754;PMS5003;41674;52.290;-1.474;2024-01-16T07:19:19;12;8;
55754;PMS5003;41674;52.290;-1.474;2024-01-16T07:21:48;8;8;
55754;PMS5003;41674;52.290;-1.474;2024-01-16T07:24:18;10;8;
55754;PMS5003;41674;52.290;-1.474;2024-01-16T07:26:48;7;7;
55754;PMS5003;41674;52.290;-1.474;2024-01-16T07:29:19;6;6;
55754;PMS5003;41674;52.290;-1.474;2024-01-16T07:31:48;7;7;
55754;PMS5003;41674;52.290;-1.474;2024-01-16T07:34:19;9;9;
55754;PMS5003;41674;52.290;-1.474;2024-01-16T07:36:48;8;8;
55754;PMS5003;41674;52.290;-1.474;2024-01-16T07:39:17;9;8;
55754;PMS5003;41674;52.290;-1.474;2024-01-16T07:41:47;11;8;
55754;PMS5003;41674;52.290;-1.474;2024-01-16T07:44:17;9;8;
55754;PMS5003;41674;52.290;-1.474;2024-01-16T07:46:47;7;7;
55754;PMS5003;41674;52.290;-1.474;2024-01-16T07:49:18;12;10;
55754;PMS5003;41674;52.290;-1.474;2024-01-16T07:51:46;10;7;
55754;PMS5003;41674;52.290;-1.474;2024-01-16T07:54:16;10;8;
55754;PMS5003;41674;52.290;-1.474;2024-01-16T07:56:46;10;9;
55754;PMS5003;41674;52.290;-1.474;2024-01-16T07:59:17;12;11;
55754;PMS5003;41674;52.290;-1.474;2024-01-16T08:01:45;11;10;
55754;PMS5003;41674;52.290;-1.474;2024-01-16T08:04:14;13;12;
55754;PMS5003;41674;52.290;-1.474;2024-01-16T08:06:44;8;8;
55754;PMS5003;41674;52.290;-1.474;2024-01-16T08:09:14;12;10;
55754;PMS5003;41674;52.290;-1.474;2024-01-16T08:11:44;13;11;
55754;PMS5003;41674;52.290;-1.474;2024-01-16T08:14:15;14;13;
55754;PMS5003;41674;52.290;-1.474;2024-01-16T08:16:43;15;13;
55754;PMS5003;41674;52.290;-1.474;2024-01-16T08:19:13;13;12;
55754;PMS5003;41674;52.290;-1.474;2024-01-16T08:21:43;14;12;
55754;PMS5003;41674;52.290;-1.474;2024-01-16T08:24:12;12;12;
55754;PMS5003;41674;52.290;-1.474;2024-01-16T08:26:44;12;12;
55754;PMS5003;41674;52.290;-1.474;2024-01-16T08:29:12;13;13;
55754;PMS5003;41674;52.290;-1.474;2024-01-16T08:31:42;16;13;
55754;PMS5003;41674;52.290;-1.474;2024-01-16T08:34:11;14;13;
55754;PMS5003;41674;52.290;-1.474;2024-01-16T08:36:41;13;13;
55754;PMS5003;41674;52.290;-1.474;2024-01-16T08:39:11;16;14;
55754;PMS5003;41674;52.290;-1.474;2024-01-16T08:41:41;17;13;
55754;PMS5003;41674;52.290;-1.474;2024-01-16T08:44:10;14;14;
55754;PMS5003;41674;52.290;-1.474;2024-01-16T08:46:40;58;52;
55754;PMS5003;41674;52.290;-1.474;2024-01-16T08:49:09;18;14;
55754;PMS5003;41674;52.290;-1.474;2024-01-16T08:51:39;13;13;
55754;PMS5003;41674;52.290;-1.474;2024-01-16T08:54:08;16;15;
55754;PMS5003;41674;52.290;-1.474;2024-01-16T08:56:38;16;15;
55754;PMS5003;41674;52.290;-1.474;2024-01-16T08:59:09;13;13;
55754;PMS5003;41674;52.290;-1.474;2024-01-16T09:01:37;13;12;
55754;PMS5003;41674;52.290;-1.474;2024-01-16T09:04:07;22;15;
55754;PMS5003;41674;52.290;-1.474;2024-01-16T09:06:36;19;15;
55754;PMS5003;41674;52.290;-1.474;2024-01-16T09:09:06;15;15;
55754;PMS5003;41674;52.290;-1.474;2024-01-16T09:11:36;22;16;
55754;PMS5003;41674;52.290;-1.474;2024-01-16T09:14:06;18;17;
55754;PMS5003;41674;52.290;-1.474;2024-01-16T09:16:37;14;13;
55754;PMS5003;41674;52.290;-1.474;2024-01-16T09:19:05;14;13;
55754;PMS5003;41674;52.290;-1.474;2024-01-16T09:21:36;17;16;
55754;PMS5003;41674;52.290;-1.474;2024-01-16T09:24:04;18;16;
55754;PMS5003;41674;52.290;-1.474;2024-01-16T09:26:33;14;14;
55754;PMS5003;41674;52.290;-1.474;2024-01-16T09:29:03;19;16;
55754;PMS5003;41674;52.290;-1.474;2024-01-16T09:31:33;13;13;
55754;PMS5003;41674;52.290;-1.474;2024-01-16T09:34:02;15;14;
55754;PMS5003;41674;52.290;-1.474;2024-01-16T09:36:32;17;15;
55754;PMS5003;41674;52.290;-1.474;2024-01-16T09:39:02;15;15;
55754;PMS5003;41674;52.290;-1.474;2024-01-16T09:41:31;15;14;
55754;PMS5003;41674;52.290;-1.474;2024-01-16T09:44:01;19;17;
55754;PMS5003;41674;52.290;-1.474;2024-01-16T09:46:31;13;13;
55754;PMS5003;41674;52.290;-1.474;2024-01-16T09:49:00;17;15;
55754;PMS5003;41674;52.290;-1.474;2024-01-16T09:51:30;18;17;
55754;PMS5003;41674;52.290;-1.474;2024-01-16T09:53:59;16;16;
55754;PMS5003;41674;52.290;-1.474;2024-01-16T09:56:29;17;16;
55754;PMS5003;41674;52.290;-1.474;2024-01-16T09:58:58;19;19;
55754;PMS5003;41674;52.290;-1.474;2024-01-16T10:01:27;20;19;
55754;PMS5003;41674;52.290;-1.474;2024-01-16T10:03:57;17;17;
55754;PMS5003;41674;52.290;-1.474;2024-01-16T10:06:28;21;17;
55754;PMS5003;41674;52.290;-1.474;2024-01-16T10:08:56;23;19;
55754;PMS5003;41674;52.290;-1.474;2024-01-16T10:11:27;20;19;
55754;PMS5003;41674;52.290;-1.474;2024-01-16T10:13:55;21;18;
55754;PMS5003;41674;52.290;-1.474;2024-01-16T10:16:26;19;18;
55754;PMS5003;41674;52.290;-1.474;2024-01-16T10:18:55;21;18;
55754;PMS5003;41674;52.290;-1.474;2024-01-16T10:21:26;17;16;
55754;PMS5003;41674;52.290;-1.474;2024-01-16T10:23:54;15;15;
55754;PMS5003;41674;52.290;-1.474;2024-01-16T10:26:23;13;13;
55754;PMS5003;41674;52.290;-1.474;2024-01-16T10:28:56;16;14;
55754;PMS5003;41674;52.290;-1.474;2024-01-16T10:31:23;14;14;
55754;PMS5003;41674;52.290;-1.474;2024-01-16T10:33:52;18;13;
55754;PMS5003;41674;52.290;-1.474;2024-01-16T10:36:23;20;15;
55754;PMS5003;41674;52.290;-1.474;2024-01-16T10:38:51;15;14;
55754;PMS5003;41674;52.290;-1.474;2024-01-16T10:41:21;19;17;
55754;PMS5003;41674;52.290;-1.474;2024-01-16T10:43:51;17;14;
55754;PMS5003;41674;52.290;-1.474;2024-01-16T10:46:20;15;15;
55754;PMS5003;41674;52.290;-1.474;2024-01-16T10:51:19;15;14;
55754;PMS5003;41674;52.290;-1.474;2024-01-16T10:53:49;21;17;
55754;PMS5003;41674;52.290;-1.474;2024-01-16T10:56:20;17;17;
55754;PMS5003;41674;52.290;-1.474;2024-01-16T10:58:49;22;21;
55754;PMS5003;41674;52.290;-1.474;2024-01-16T11:01:17;18;18;
55754;PMS5003;41674;52.290;-1.474;2024-01-16T11:03:47;15;15;
55754;PMS5003;41674;52.290;-1.474;2024-01-16T11:06:16;20;19;
55754;PMS5003;41674;52.290;-1.474;2024-01-16T11:08:46;21;21;
55754;PMS5003;41674;52.290;-1.474;2024-01-16T11:11:15;18;18;
55754;PMS5003;41674;52.290;-1.474;2024-01-16T11:13:45;15;15;
55754;PMS5003;41674;52.290;-1.474;2024-01-16T11:16:14;19;19;
55754;PMS5003;41674;52.290;-1.474;2024-01-16T11:18:44;26;22;
55754;PMS5003;41674;52.290;-1.474;2024-01-16T11:21:14;20;19;
55754;PMS5003;41674;52.290;-1.474;2024-01-16T11:23:44;16;14;
55754;PMS5003;41674;52.290;-1.474;2024-01-16T11:28:43;15;11;
55754;PMS5003;41674;52.290;-1.474;2024-01-16T11:33:42;19;19;
55754;PMS5003;41674;52.290;-1.474;2024-01-16T11:38:41;15;14;
55754;PMS5003;41674;52.290;-1.474;2024-01-16T11:41:11;18;17;
55754;PMS5003;41674;52.290;-1.474;2024-01-16T11:43:40;24;22;
55754;PMS5003;41674;52.290;-1.474;2024-01-16T11:46:10;19;18;
55754;PMS5003;41674;52.290;-1.474;2024-01-16T11:48:39;17;15;
55754;PMS5003;41674;52.290;-1.474;2024-01-16T11:53:39;22;18;
55754;PMS5003;41674;52.290;-1.474;2024-01-16T11:56:11;25;23;
55754;PMS5003;41674;52.290;-1.474;2024-01-16T11:58:42;32;27;
55754;PMS5003;41674;52.290;-1.474;2024-01-16T12:01:08;27;20;
55754;PMS5003;41674;52.290;-1.474;2024-01-16T12:03:37;26;22;
55754;PMS5003;41674;52.290;-1.474;2024-01-16T12:06:07;30;27;
55754;PMS5003;41674;52.290;-1.474;2024-01-16T12:08:36;28;24;
55754;PMS5003;41674;52.290;-1.474;2024-01-16T12:11:07;32;29;
55754;PMS5003;41674;52.290;-1.474;2024-01-16T12:13:35;30;27;
55754;PMS5003;41674;52.290;-1.474;2024-01-16T12:16:05;22;22;
55754;PMS5003;41674;52.290;-1.474;2024-01-16T12:18:34;23;21;
55754;PMS5003;41674;52.290;-1.474;2024-01-16T12:23:33;23;21;
55754;PMS5003;41674;52.290;-1.474;2024-01-16T12:26:02;16;16;
55754;PMS5003;41674;52.290;-1.474;2024-01-16T12:28:32;23;19;
55754;PMS5003;41674;52.290;-1.474;2024-01-16T12:31:01;23;21;
55754;PMS5003;41674;52.290;-1.474;2024-01-16T12:33:31;21;18;
55754;PMS5003;41674;52.290;-1.474;2024-01-16T12:36:03;18;17;
55754;PMS5003;41674;52.290;-1.474;2024-01-16T12:38:30;20;17;
55754;PMS5003;41674;52.290;-1.474;2024-01-16T12:41:01;18;18;
55754;PMS5003;41674;52.290;-1.474;2024-01-16T12:43:29;18;17;
55754;PMS5003;41674;52.290;-1.474;2024-01-16T12:45:59;14;14;
55754;PMS5003;41674;52.290;-1.474;2024-01-16T12:48:28;24;21;
55754;PMS5003;41674;52.290;-1.474;2024-01-16T12:50:59;18;15;
55754;PMS5003;41674;52.290;-1.474;2024-01-16T12:53:28;17;15;
55754;PMS5003;41674;52.290;-1.474;2024-01-16T12:55:58;16;15;
55754;PMS5003;41674;52.290;-1.474;2024-01-16T12:58:31;15;15;
55754;PMS5003;41674;52.290;-1.474;2024-01-16T13:01:02;12;11;
55754;PMS5003;41674;52.290;-1.474;2024-01-16T13:03:26;17;15;
55754;PMS5003;41674;52.290;-1.474;2024-01-16T13:05:56;14;12;
55754;PMS5003;41674;52.290;-1.474;2024-01-16T13:08:25;17;17;
55754;PMS5003;41674;52.290;-1.474;2024-01-16T13:11:02;18;16;
55754;PMS5003;41674;52.290;-1.474;2024-01-16T13:13:24;18;15;
55754;PMS5003;41674;52.290;-1.474;2024-01-16T13:15:53;17;15;
55754;PMS5003;41674;52.290;-1.474;2024-01-16T13:18:23;13;13;
55754;PMS5003;41674;52.290;-1.474;2024-01-16T13:20:52;21;16;
55754;PMS5003;41674;52.290;-1.474;2024-01-16T13:23:21;17;16;
55754;PMS5003;41674;52.290;-1.474;2024-01-16T13:25:51;14;12;
55754;PMS5003;41674;52.290;-1.474;2024-01-16T13:28:21;17;12;
55754;PMS5003;41674;52.290;-1.474;2024-01-16T13:30:49;15;14;
55754;PMS5003;41674;52.290;-1.474;2024-01-16T13:33:19;22;19;
55754;PMS5003;41674;52.290;-1.474;2024-01-16T13:35:48;18;15;
55754;PMS5003;41674;52.290;-1.474;2024-01-16T13:38:18;32;30;
55754;PMS5003;41674;52.290;-1.474;2024-01-16T13:40:47;18;17;
55754;PMS5003;41674;52.290;-1.474;2024-01-16T13:43:17;12;11;
55754;PMS5003;41674;52.290;-1.474;2024-01-16T13:45:47;13;13;
55754;PMS5003;41674;52.290;-1.474;2024-01-16T13:48:16;13;13;
55754;PMS5003;41674;52.290;-1.474;2024-01-16T13:50:46;23;17;
55754;PMS5003;41674;52.290;-1.474;2024-01-16T13:53:16;14;13;
55754;PMS5003;41674;52.290;-1.474;2024-01-16T13:55:45;18;16;
55754;PMS5003;41674;52.290;-1.474;2024-01-16T13:58:15;14;12;
55754;PMS5003;41674;52.290;-1.474;2024-01-16T14:00:44;12;10;
55754;PMS5003;41674;52.290;-1.474;2024-01-16T14:03:14;14;11;
55754;PMS5003;41674;52.290;-1.474;2024-01-16T14:05:43;12;12;
55754;PMS5003;41674;52.290;-1.474;2024-01-16T14:08:13;14;12;
55754;PMS5003;41674;52.290;-1.474;2024-01-16T14:10:42;48;42;
55754;PMS5003;41674;52.290;-1.474;2024-01-16T14:13:12;57;56;
55754;PMS5003;41674;52.290;-1.474;2024-01-16T14:15:42;28;26;
55754;PMS5003;41674;52.290;-1.474;2024-01-16T14:18:11;18;16;
55754;PMS5003;41674;52.290;-1.474;2024-01-16T14:20:41;32;30;
55754;PMS5003;41674;52.290;-1.474;2024-01-16T14:23:10;16;14;
55754;PMS5003;41674;52.290;-1.474;2024-01-16T14:25:39;12;10;
55754;PMS5003;41674;52.290;-1.474;2024-01-16T14:28:09;10;9;
55754;PMS5003;41674;52.290;-1.474;2024-01-16T14:30:38;14;11;
55754;PMS5003;41674;52.290;-1.474;2024-01-16T14:33:08;18;11;
55754;PMS5003;41674;52.290;-1.474;2024-01-16T14:35:38;20;13;
55754;PMS5003;41674;52.290;-1.474;2024-01-16T14:38:07;24;19;
55754;PMS5003;41674;52.290;-1.474;2024-01-16T14:40:37;22;21;
55754;PMS5003;41674;52.290;-1.474;2024-01-16T14:43:08;14;12;
55754;PMS5003;41674;52.290;-1.474;2024-01-16T14:45:36;14;14;
55754;PMS5003;41674;52.290;-1.474;2024-01-16T14:48:07;15;15;
55754;PMS5003;41674;52.290;-1.474;2024-01-16T14:50:35;14;14;
55754;PMS5003;41674;52.290;-1.474;2024-01-16T14:53:06;14;12;
55754;PMS5003;41674;52.290;-1.474;2024-01-16T14:55:34;17;15;
55754;PMS5003;41674;52.290;-1.474;2024-01-16T14:58:04;13;13;
55754;PMS5003;41674;52.290;-1.474;2024-01-16T15:00:34;15;12;
55754;PMS5003;41674;52.290;-1.474;2024-01-16T15:03:04;16;14;
55754;PMS5003;41674;52.290;-1.474;2024-01-16T15:05:33;13;12;
55754;PMS5003;41674;52.290;-1.474;2024-01-16T15:08:03;10;10;
55754;PMS5003;41674;52.290;-1.474;2024-01-16T15:10:32;7;7;
55754;PMS5003;41674;52.290;-1.474;2024-01-16T15:13:02;11;10;
55754;PMS5003;41674;52.290;-1.474;2024-01-16T15:15:32;11;10;
55754;PMS5003;41674;52.290;-1.474;2024-01-16T15:18:02;13;10;
55754;PMS5003;41674;52.290;-1.474;2024-01-16T15:20:32;9;9;
55754;PMS5003;41674;52.290;-1.474;2024-01-16T15:23:03;8;8;
55754;PMS5003;41674;52.290;-1.474;2024-01-16T15:25:31;7;7;
55754;PMS5003;41674;52.290;-1.474;2024-01-16T15:28:00;73;63;
55754;PMS5003;41674;52.290;-1.474;2024-01-16T15:30:30;26;22;
55754;PMS5003;41674;52.290;-1.474;2024-01-16T15:33:00;9;9;
55754;PMS5003;41674;52.290;-1.474;2024-01-16T15:35:29;6;5;
55754;PMS5003;41674;52.290;-1.474;2024-01-16T15:37:59;13;9;
55754;PMS5003;41674;52.290;-1.474;2024-01-16T15:40:29;12;11;
55754;PMS5003;41674;52.290;-1.474;2024-01-16T15:42:58;5;5;
55754;PMS5003;41674;52.290;-1.474;2024-01-16T15:45:28;6;6;
55754;PMS5003;41674;52.290;-1.474;2024-01-16T15:47:58;10;8;
55754;PMS5003;41674;52.290;-1.474;2024-01-16T15:50:27;8;8;
55754;PMS5003;41674;52.290;-1.474;2024-01-16T15:52:57;15;12;
55754;PMS5003;41674;52.290;-1.474;2024-01-16T15:55:27;7;7;
55754;PMS5003;41674;52.290;-1.474;2024-01-16T15:57:56;8;6;
55754;PMS5003;41674;52.290;-1.474;2024-01-16T16:00:26;7;6;
55754;PMS5003;41674;52.290;-1.474;2024-01-16T16:02:56;4;4;
55754;PMS5003;41674;52.290;-1.474;2024-01-16T16:05:26;6;4;
55754;PMS5003;41674;52.290;-1.474;2024-01-16T16:07:55;6;5;
55754;PMS5003;41674;52.290;-1.474;2024-01-16T16:10:25;7;7;
55754;PMS5003;41674;52.290;-1.474;2024-01-16T16:12:54;5;4;
55754;PMS5003;41674;52.290;-1.474;2024-01-16T16:15:25;7;7;
55754;PMS5003;41674;52.290;-1.474;2024-01-16T16:17:53;8;6;
55754;PMS5003;41674;52.290;-1.474;2024-01-16T16:20:25;9;9;
55754;PMS5003;41674;52.290;-1.474;2024-01-16T16:22:53;8;8;
55754;PMS5003;41674;52.290;-1.474;2024-01-16T16:25:22;7;7;
55754;PMS5003;41674;52.290;-1.474;2024-01-16T16:27:51;10;10;
55754;PMS5003;41674;52.290;-1.474;2024-01-16T16:30:20;12;12;
55754;PMS5003;41674;52.290;-1.474;2024-01-16T16:32:50;20;19;
55754;PMS5003;41674;52.290;-1.474;2024-01-16T16:35:20;12;10;